sensor_id;sensor_type;location;lat;lon;timestamp;temperature;humidity
67502;SHT30;54349;52.528;19.760;2022-07-15T00:01:25;23.25;51.22
67502;SHT30;54349;52.528;19.760;2022-07-15T00:03:54;23.17;51.94
67502;SHT30;54349;52.528;19.760;2022-07-15T00:06:22;23.28;52.09
67502;SHT30;54349;52.528;19.760;2022-07-15T00:08:51;23.39;51.39
67502;SHT30;54349;52.528;19.760;2022-07-15T00:11:19;23.25;50.75
67502;SHT30;54349;52.528;19.760;2022-07-15T00:13:47;23.14;51.58
67502;SHT30;54349;52.528;19.760;2022-07-15T00:16:15;23.25;51.80
67502;SHT30;54349;52.528;19.760;2022-07-15T00:18:44;23.36;51.28
67502;SHT30;54349;52.528;19.760;2022-07-15T00:21:12;23.24;50.64
67502;SHT30;54349;52.528;19.760;2022-07-15T00:23:41;23.13;51.38
67502;SHT30;54349;52.528;19.760;2022-07-15T00:26:10;23.24;51.64
67502;SHT30;54349;52.528;19.760;2022-07-15T00:28:38;23.37;51.28
67502;SHT30;54349;52.528;19.760;2022-07-15T00:31:06;23.28;50.54
67502;SHT30;54349;52.528;19.760;2022-07-15T00:33:36;23.17;51.31
67502;SHT30;54349;52.528;19.760;2022-07-15T00:36:04;23.28;51.58
67502;SHT30;54349;52.528;19.760;2022-07-15T00:38:33;23.41;51.13
67502;SHT30;54349;52.528;19.760;2022-07-15T00:41:01;23.29;50.42
67502;SHT30;54349;52.528;19.760;2022-07-15T00:43:30;23.14;50.99
67502;SHT30;54349;52.528;19.760;2022-07-15T00:45:58;23.21;51.54
67502;SHT30;54349;52.528;19.760;2022-07-15T00:48:26;23.35;51.42
67502;SHT30;54349;52.528;19.760;2022-07-15T00:50:55;23.36;50.51
67502;SHT30;54349;52.528;19.760;2022-07-15T00:53:24;23.20;50.78
67502;SHT30;54349;52.528;19.760;2022-07-15T00:55:58;23.22;51.41
67502;SHT30;54349;52.528;19.760;2022-07-15T00:58:29;23.36;51.32
67502;SHT30;54349;52.528;19.760;2022-07-15T01:01:04;23.31;50.17
67502;SHT30;54349;52.528;19.760;2022-07-15T01:03:33;23.02;50.07
67502;SHT30;54349;52.528;19.760;2022-07-15T01:06:02;22.91;51.07
67502;SHT30;54349;52.528;19.760;2022-07-15T01:08:31;23.02;51.12
67502;SHT30;54349;52.528;19.760;2022-07-15T01:10:59;23.17;50.70
67502;SHT30;54349;52.528;19.760;2022-07-15T01:13:28;23.08;49.97
67502;SHT30;54349;52.528;19.760;2022-07-15T01:15:57;22.92;50.77
67502;SHT30;54349;52.528;19.760;2022-07-15T01:18:26;22.99;50.88
67502;SHT30;54349;52.528;19.760;2022-07-15T01:20:54;23.12;50.75
67502;SHT30;54349;52.528;19.760;2022-07-15T01:23:23;23.16;50.04
67502;SHT30;54349;52.528;19.760;2022-07-15T01:26:09;22.93;50.26
67502;SHT30;54349;52.528;19.760;2022-07-15T01:28:41;22.93;50.69
67502;SHT30;54349;52.528;19.760;2022-07-15T01:31:11;23.05;50.60
67502;SHT30;54349;52.528;19.760;2022-07-15T01:33:41;23.13;50.02
67502;SHT30;54349;52.528;19.760;2022-07-15T01:36:09;22.94;49.66
67502;SHT30;54349;52.528;19.760;2022-07-15T01:38:41;22.81;50.53
67502;SHT30;54349;52.528;19.760;2022-07-15T01:41:17;22.91;50.54
67502;SHT30;54349;52.528;19.760;2022-07-15T01:43:45;23.03;50.40
67502;SHT30;54349;52.528;19.760;2022-07-15T01:46:14;23.01;49.50
67502;SHT30;54349;52.528;19.760;2022-07-15T01:48:43;22.79;50.11
67502;SHT30;54349;52.528;19.760;2022-07-15T01:51:55;22.85;50.39
67502;SHT30;54349;52.528;19.760;2022-07-15T01:54:25;22.97;50.30
67502;SHT30;54349;52.528;19.760;2022-07-15T01:56:58;23.04;49.75
67502;SHT30;54349;52.528;19.760;2022-07-15T01:59:27;22.86;49.62
67502;SHT30;54349;52.528;19.760;2022-07-15T02:01:56;22.83;50.21
67502;SHT30;54349;52.528;19.760;2022-07-15T02:04:26;22.91;50.19
67502;SHT30;54349;52.528;19.760;2022-07-15T02:06:55;23.01;50.04
67502;SHT30;54349;52.528;19.760;2022-07-15T02:09:26;22.97;49.24
67502;SHT30;54349;52.528;19.760;2022-07-15T02:11:55;22.81;50.01
67502;SHT30;54349;52.528;19.760;2022-07-15T02:14:25;22.86;50.12
67502;SHT30;54349;52.528;19.760;2022-07-15T02:17:00;22.95;50.03
67502;SHT30;54349;52.528;19.760;2022-07-15T02:19:34;23.02;49.58
67502;SHT30;54349;52.528;19.760;2022-07-15T02:22:02;22.86;49.42
67502;SHT30;54349;52.528;19.760;2022-07-15T02:24:31;22.79;50.00
67502;SHT30;54349;52.528;19.760;2022-07-15T02:26:59;22.87;49.99
67502;SHT30;54349;52.528;19.760;2022-07-15T02:29:28;22.97;49.90
67502;SHT30;54349;52.528;19.760;2022-07-15T02:31:56;22.94;48.50
67502;SHT30;54349;52.528;19.760;2022-07-15T02:34:24;22.80;49.53
67502;SHT30;54349;52.528;19.760;2022-07-15T02:36:53;22.85;49.59
67502;SHT30;54349;52.528;19.760;2022-07-15T02:39:21;22.94;49.59
67502;SHT30;54349;52.528;19.760;2022-07-15T02:41:49;23.02;49.33
67502;SHT30;54349;52.528;19.760;2022-07-15T02:44:18;22.91;49.09
67502;SHT30;54349;52.528;19.760;2022-07-15T02:46:47;22.83;49.62
67502;SHT30;54349;52.528;19.760;2022-07-15T02:49:20;22.90;49.61
67502;SHT30;54349;52.528;19.760;2022-07-15T02:51:50;22.99;49.59
67502;SHT30;54349;52.528;19.760;2022-07-15T02:54:19;22.99;49.06
67502;SHT30;54349;52.528;19.760;2022-07-15T02:56:49;22.82;49.64
67502;SHT30;54349;52.528;19.760;2022-07-15T02:59:17;22.83;49.71
67502;SHT30;54349;52.528;19.760;2022-07-15T03:01:46;22.92;49.69
67502;SHT30;54349;52.528;19.760;2022-07-15T03:04:15;22.99;49.53
67502;SHT30;54349;52.528;19.760;2022-07-15T03:06:43;22.93;49.01
67502;SHT30;54349;52.528;19.760;2022-07-15T03:09:13;22.79;49.71
67502;SHT30;54349;52.528;19.760;2022-07-15T03:11:41;22.85;49.72
67502;SHT30;54349;52.528;19.760;2022-07-15T03:14:09;22.92;49.67
67502;SHT30;54349;52.528;19.760;2022-07-15T03:16:37;22.99;49.39
67502;SHT30;54349;52.528;19.760;2022-07-15T03:19:06;22.87;49.33
67502;SHT30;54349;52.528;19.760;2022-07-15T03:21:37;22.81;49.70
67502;SHT30;54349;52.528;19.760;2022-07-15T03:24:05;22.89;49.71
67502;SHT30;54349;52.528;19.760;2022-07-15T03:26:35;22.96;49.62
67502;SHT30;54349;52.528;19.760;2022-07-15T03:29:03;23.00;49.23
67502;SHT30;54349;52.528;19.760;2022-07-15T03:31:33;22.81;49.28
67502;SHT30;54349;52.528;19.760;2022-07-15T03:34:02;22.76;49.74
67502;SHT30;54349;52.528;19.760;2022-07-15T03:36:31;22.83;49.71
67502;SHT30;54349;52.528;19.760;2022-07-15T03:38:59;22.92;49.65
67502;SHT30;54349;52.528;19.760;2022-07-15T03:41:27;22.96;49.33
67502;SHT30;54349;52.528;19.760;2022-07-15T03:43:56;22.79;49.32
67502;SHT30;54349;52.528;19.760;2022-07-15T03:46:24;22.74;49.76
67502;SHT30;54349;52.528;19.760;2022-07-15T03:48:55;22.82;49.74
67502;SHT30;54349;52.528;19.760;2022-07-15T03:51:24;22.89;49.66
67502;SHT30;54349;52.528;19.760;2022-07-15T03:53:52;22.96;49.46
67502;SHT30;54349;52.528;19.760;2022-07-15T03:56:20;22.86;49.12
67502;SHT30;54349;52.528;19.760;2022-07-15T03:58:49;22.74;49.70
67502;SHT30;54349;52.528;19.760;2022-07-15T04:01:17;22.81;49.70
67502;SHT30;54349;52.528;19.760;2022-07-15T04:03:47;22.88;49.61
67502;SHT30;54349;52.528;19.760;2022-07-15T04:06:17;22.96;49.43
67502;SHT30;54349;52.528;19.760;2022-07-15T04:08:46;22.86;49.09
67502;SHT30;54349;52.528;19.760;2022-07-15T04:11:17;22.72;49.75
67502;SHT30;54349;52.528;19.760;2022-07-15T04:13:46;22.77;49.76
67502;SHT30;54349;52.528;19.760;2022-07-15T04:16:14;22.85;49.68
67502;SHT30;54349;52.528;19.760;2022-07-15T04:18:43;22.93;49.48
67502;SHT30;54349;52.528;19.760;2022-07-15T04:21:12;22.80;49.11
67502;SHT30;54349;52.528;19.760;2022-07-15T04:23:42;22.72;49.72
67502;SHT30;54349;52.528;19.760;2022-07-15T04:26:10;22.78;49.68
67502;SHT30;54349;52.528;19.760;2022-07-15T04:28:38;22.85;49.60
67502;SHT30;54349;52.528;19.760;2022-07-15T04:31:06;22.92;49.43
67502;SHT30;54349;52.528;19.760;2022-07-15T04:33:46;22.79;49.34
67502;SHT30;54349;52.528;19.760;2022-07-15T04:36:15;22.71;49.84
67502;SHT30;54349;52.528;19.760;2022-07-15T04:38:43;22.78;49.78
67502;SHT30;54349;52.528;19.760;2022-07-15T04:41:12;22.86;49.70
67502;SHT30;54349;52.528;19.760;2022-07-15T04:43:41;22.92;49.30
67502;SHT30;54349;52.528;19.760;2022-07-15T04:46:11;22.76;49.30
67502;SHT30;54349;52.528;19.760;2022-07-15T04:48:39;22.74;49.70
67502;SHT30;54349;52.528;19.760;2022-07-15T04:51:29;22.83;49.60
67502;SHT30;54349;52.528;19.760;2022-07-15T04:53:58;22.90;49.54
67502;SHT30;54349;52.528;19.760;2022-07-15T04:56:35;22.97;49.28
67502;SHT30;54349;52.528;19.760;2022-07-15T04:59:05;22.82;49.02
67502;SHT30;54349;52.528;19.760;2022-07-15T05:01:33;22.75;49.54
67502;SHT30;54349;52.528;19.760;2022-07-15T05:04:02;22.83;49.52
67502;SHT30;54349;52.528;19.760;2022-07-15T05:06:30;22.89;49.48
67502;SHT30;54349;52.528;19.760;2022-07-15T05:08:58;22.96;49.35
67502;SHT30;54349;52.528;19.760;2022-07-15T05:11:28;22.88;48.81
67502;SHT30;54349;52.528;19.760;2022-07-15T05:13:57;22.75;49.49
67502;SHT30;54349;52.528;19.760;2022-07-15T05:16:25;22.82;49.47
67502;SHT30;54349;52.528;19.760;2022-07-15T05:18:54;22.89;49.39
67502;SHT30;54349;52.528;19.760;2022-07-15T05:21:22;22.96;49.33
67502;SHT30;54349;52.528;19.760;2022-07-15T05:23:52;22.96;48.65
67502;SHT30;54349;52.528;19.760;2022-07-15T05:26:41;22.78;49.35
67502;SHT30;54349;52.528;19.760;2022-07-15T05:29:12;22.83;49.43
67502;SHT30;54349;52.528;19.760;2022-07-15T05:31:41;22.90;49.31
67502;SHT30;54349;52.528;19.760;2022-07-15T05:34:10;22.95;49.28
67502;SHT30;54349;52.528;19.760;2022-07-15T05:36:39;23.01;48.96
67502;SHT30;54349;52.528;19.760;2022-07-15T05:39:11;22.85;48.94
67502;SHT30;54349;52.528;19.760;2022-07-15T05:41:40;22.82;49.39
67502;SHT30;54349;52.528;19.760;2022-07-15T05:44:16;22.89;49.30
67502;SHT30;54349;52.528;19.760;2022-07-15T05:46:47;22.95;49.22
67502;SHT30;54349;52.528;19.760;2022-07-15T05:49:16;23.02;49.16
67502;SHT30;54349;52.528;19.760;2022-07-15T05:51:45;22.91;48.70
67502;SHT30;54349;52.528;19.760;2022-07-15T05:54:13;22.78;49.43
67502;SHT30;54349;52.528;19.760;2022-07-15T05:56:43;22.83;49.41
67502;SHT30;54349;52.528;19.760;2022-07-15T05:59:17;22.90;49.34
67502;SHT30;54349;52.528;19.760;2022-07-15T06:01:46;22.97;49.30
67502;SHT30;54349;52.528;19.760;2022-07-15T06:04:15;22.96;48.88
67502;SHT30;54349;52.528;19.760;2022-07-15T06:06:45;22.80;49.47
67502;SHT30;54349;52.528;19.760;2022-07-15T06:09:14;22.83;49.51
67502;SHT30;54349;52.528;19.760;2022-07-15T06:11:42;22.90;49.45
67502;SHT30;54349;52.528;19.760;2022-07-15T06:14:10;22.96;49.34
67502;SHT30;54349;52.528;19.760;2022-07-15T06:16:39;22.98;49.16
67502;SHT30;54349;52.528;19.760;2022-07-15T06:19:08;22.79;49.63
67502;SHT30;54349;52.528;19.760;2022-07-15T06:21:38;22.79;49.70
67502;SHT30;54349;52.528;19.760;2022-07-15T06:24:06;22.86;49.68
67502;SHT30;54349;52.528;19.760;2022-07-15T06:26:35;22.93;49.57
67502;SHT30;54349;52.528;19.760;2022-07-15T06:29:03;22.99;49.45
67502;SHT30;54349;52.528;19.760;2022-07-15T06:31:31;22.84;49.60
67502;SHT30;54349;52.528;19.760;2022-07-15T06:34:01;22.77;49.78
67502;SHT30;54349;52.528;19.760;2022-07-15T06:36:30;22.83;49.80
67502;SHT30;54349;52.528;19.760;2022-07-15T06:38:59;22.91;49.70
67502;SHT30;54349;52.528;19.760;2022-07-15T06:41:29;22.95;49.47
67502;SHT30;54349;52.528;19.760;2022-07-15T06:43:59;22.78;49.59
67502;SHT30;54349;52.528;19.760;2022-07-15T06:46:35;22.75;49.88
67502;SHT30;54349;52.528;19.760;2022-07-15T06:49:03;22.82;49.68
67502;SHT30;54349;52.528;19.760;2022-07-15T06:51:32;22.88;49.63
67502;SHT30;54349;52.528;19.760;2022-07-15T06:54:02;22.93;49.49
67502;SHT30;54349;52.528;19.760;2022-07-15T06:56:32;22.76;49.94
67502;SHT30;54349;52.528;19.760;2022-07-15T06:59:03;22.74;50.29
67502;SHT30;54349;52.528;19.760;2022-07-15T07:01:33;22.84;50.26
67502;SHT30;54349;52.528;19.760;2022-07-15T07:04:02;22.93;50.49
67502;SHT30;54349;52.528;19.760;2022-07-15T07:06:33;22.90;50.37
67502;SHT30;54349;52.528;19.760;2022-07-15T07:09:03;22.80;51.07
67502;SHT30;54349;52.528;19.760;2022-07-15T07:11:31;22.88;51.27
67502;SHT30;54349;52.528;19.760;2022-07-15T07:14:00;23.00;51.23
67502;SHT30;54349;52.528;19.760;2022-07-15T07:16:29;23.01;50.78
67502;SHT30;54349;52.528;19.760;2022-07-15T07:18:59;22.83;51.00
67502;SHT30;54349;52.528;19.760;2022-07-15T07:21:28;22.83;51.52
67502;SHT30;54349;52.528;19.760;2022-07-15T07:23:58;22.96;51.61
67502;SHT30;54349;52.528;19.760;2022-07-15T07:26:27;23.09;51.59
67502;SHT30;54349;52.528;19.760;2022-07-15T07:28:55;23.09;51.16
67502;SHT30;54349;52.528;19.760;2022-07-15T07:31:23;22.89;51.04
67502;SHT30;54349;52.528;19.760;2022-07-15T07:33:55;22.79;51.70
67502;SHT30;54349;52.528;19.760;2022-07-15T07:36:25;22.91;51.72
67502;SHT30;54349;52.528;19.760;2022-07-15T07:38:54;23.06;51.76
67502;SHT30;54349;52.528;19.760;2022-07-15T07:41:23;23.10;51.38
67502;SHT30;54349;52.528;19.760;2022-07-15T07:43:52;22.93;51.17
67502;SHT30;54349;52.528;19.760;2022-07-15T07:46:20;22.76;51.50
67502;SHT30;54349;52.528;19.760;2022-07-15T07:48:49;22.76;52.04
67502;SHT30;54349;52.528;19.760;2022-07-15T07:51:37;22.94;52.09
67502;SHT30;54349;52.528;19.760;2022-07-15T07:54:09;23.08;51.85
67502;SHT30;54349;52.528;19.760;2022-07-15T07:56:37;23.01;51.43
67502;SHT30;54349;52.528;19.760;2022-07-15T07:59:05;22.85;51.47
67502;SHT30;54349;52.528;19.760;2022-07-15T08:01:34;22.84;52.05
67502;SHT30;54349;52.528;19.760;2022-07-15T08:04:02;22.99;52.06
67502;SHT30;54349;52.528;19.760;2022-07-15T08:06:32;23.15;51.56
67502;SHT30;54349;52.528;19.760;2022-07-15T08:09:02;23.10;51.05
67502;SHT30;54349;52.528;19.760;2022-07-15T08:11:30;22.96;51.83
67502;SHT30;54349;52.528;19.760;2022-07-15T08:13:59;23.04;52.08
67502;SHT30;54349;52.528;19.760;2022-07-15T08:16:27;23.18;52.08
67502;SHT30;54349;52.528;19.760;2022-07-15T08:18:56;23.28;51.65
67502;SHT30;54349;52.528;19.760;2022-07-15T08:21:25;23.17;51.23
67502;SHT30;54349;52.528;19.760;2022-07-15T08:23:54;22.98;51.03
67502;SHT30;54349;52.528;19.760;2022-07-15T08:26:22;22.90;51.61
67502;SHT30;54349;52.528;19.760;2022-07-15T08:28:51;23.02;51.81
67502;SHT30;54349;52.528;19.760;2022-07-15T08:31:32;23.19;51.48
67502;SHT30;54349;52.528;19.760;2022-07-15T08:34:03;23.23;51.10
67502;SHT30;54349;52.528;19.760;2022-07-15T08:36:33;23.07;51.01
67502;SHT30;54349;52.528;19.760;2022-07-15T08:39:02;22.91;51.33
67502;SHT30;54349;52.528;19.760;2022-07-15T08:41:33;22.96;51.90
67502;SHT30;54349;52.528;19.760;2022-07-15T08:44:05;23.14;51.90
67502;SHT30;54349;52.528;19.760;2022-07-15T08:46:34;23.27;51.58
67502;SHT30;54349;52.528;19.760;2022-07-15T08:49:10;23.19;51.32
67502;SHT30;54349;52.528;19.760;2022-07-15T08:51:47;23.00;51.17
67502;SHT30;54349;52.528;19.760;2022-07-15T08:54:15;22.84;51.09
67502;SHT30;54349;52.528;19.760;2022-07-15T08:56:44;22.88;51.71
67502;SHT30;54349;52.528;19.760;2022-07-15T08:59:13;23.05;51.70
67502;SHT30;54349;52.528;19.760;2022-07-15T09:01:43;23.22;51.65
67502;SHT30;54349;52.528;19.760;2022-07-15T09:04:17;23.19;51.41
67502;SHT30;54349;52.528;19.760;2022-07-15T09:06:46;23.04;51.39
67502;SHT30;54349;52.528;19.760;2022-07-15T09:09:30;22.99;51.93
67502;SHT30;54349;52.528;19.760;2022-07-15T09:12:05;23.15;51.95
67502;SHT30;54349;52.528;19.760;2022-07-15T09:14:43;23.30;51.50
67502;SHT30;54349;52.528;19.760;2022-07-15T09:22:47;23.16;51.91
67502;SHT30;54349;52.528;19.760;2022-07-15T09:25:19;23.36;51.72
67502;SHT30;54349;52.528;19.760;2022-07-15T09:27:49;23.35;51.20
67502;SHT30;54349;52.528;19.760;2022-07-15T09:30:25;23.20;51.06
67502;SHT30;54349;52.528;19.760;2022-07-15T09:33:20;23.06;51.34
67502;SHT30;54349;52.528;19.760;2022-07-15T09:38:44;23.34;51.35
67502;SHT30;54349;52.528;19.760;2022-07-15T09:41:36;23.38;51.14
67502;SHT30;54349;52.528;19.760;2022-07-15T09:46:53;23.05;50.96
67502;SHT30;54349;52.528;19.760;2022-07-15T09:51:57;23.17;51.42
67502;SHT30;54349;52.528;19.760;2022-07-15T09:57:09;23.31;51.28
67502;SHT30;54349;52.528;19.760;2022-07-15T09:59:46;23.15;51.17
67502;SHT30;54349;52.528;19.760;2022-07-15T10:02:18;23.00;51.08
67502;SHT30;54349;52.528;19.760;2022-07-15T10:04:46;23.03;51.72
67502;SHT30;54349;52.528;19.760;2022-07-15T10:07:16;23.20;51.63
67502;SHT30;54349;52.528;19.760;2022-07-15T10:09:58;23.36;51.48
67502;SHT30;54349;52.528;19.760;2022-07-15T10:12:42;23.26;51.38
67502;SHT30;54349;52.528;19.760;2022-07-15T10:24:16;23.30;50.86
67502;SHT30;54349;52.528;19.760;2022-07-15T10:27:11;23.36;51.21
67502;SHT30;54349;52.528;19.760;2022-07-15T10:30:03;23.20;51.37
67502;SHT30;54349;52.528;19.760;2022-07-15T10:40:56;23.23;50.22
67502;SHT30;54349;52.528;19.760;2022-07-15T10:49:28;22.88;50.43
67502;SHT30;54349;52.528;19.760;2022-07-15T10:51:42;22.64;50.03
67502;SHT30;54349;52.528;19.760;2022-07-15T10:56:49;22.81;50.37
67502;SHT30;54349;52.528;19.760;2022-07-15T10:59:22;22.98;49.80
67502;SHT30;54349;52.528;19.760;2022-07-15T11:04:27;23.02;50.25
67502;SHT30;54349;52.528;19.760;2022-07-15T11:15:11;22.68;50.17
67502;SHT30;54349;52.528;19.760;2022-07-15T11:17:43;22.89;49.86
67502;SHT30;54349;52.528;19.760;2022-07-15T11:20:30;23.08;49.57
67502;SHT30;54349;52.528;19.760;2022-07-15T11:23:02;23.04;50.10
67502;SHT30;54349;52.528;19.760;2022-07-15T11:25:34;22.83;50.15
67502;SHT30;54349;52.528;19.760;2022-07-15T11:28:10;22.64;49.83
67502;SHT30;54349;52.528;19.760;2022-07-15T11:33:22;22.68;49.99
67502;SHT30;54349;52.528;19.760;2022-07-15T11:38:26;23.03;49.33
67502;SHT30;54349;52.528;19.760;2022-07-15T11:40:58;23.07;49.84
67502;SHT30;54349;52.528;19.760;2022-07-15T11:44:05;22.82;49.69
67502;SHT30;54349;52.528;19.760;2022-07-15T11:46:57;22.58;49.47
67502;SHT30;54349;52.528;19.760;2022-07-15T11:49:28;22.61;49.52
67502;SHT30;54349;52.528;19.760;2022-07-15T11:51:58;22.79;49.24
67502;SHT30;54349;52.528;19.760;2022-07-15T11:54:28;22.97;49.05
67502;SHT30;54349;52.528;19.760;2022-07-15T11:56:57;23.10;49.35
67502;SHT30;54349;52.528;19.760;2022-07-15T11:59:29;22.97;49.76
67502;SHT30;54349;52.528;19.760;2022-07-15T12:02:07;22.75;49.45
67502;SHT30;54349;52.528;19.760;2022-07-15T12:04:41;22.56;49.26
67502;SHT30;54349;52.528;19.760;2022-07-15T12:07:12;22.59;49.49
67502;SHT30;54349;52.528;19.760;2022-07-15T12:10:10;22.81;49.16
67502;SHT30;54349;52.528;19.760;2022-07-15T12:12:41;22.99;49.14
67502;SHT30;54349;52.528;19.760;2022-07-15T12:15:21;23.10;49.45
67502;SHT30;54349;52.528;19.760;2022-07-15T12:17:50;22.94;49.62
67502;SHT30;54349;52.528;19.760;2022-07-15T12:20:19;22.71;49.09
67502;SHT30;54349;52.528;19.760;2022-07-15T12:23:07;22.58;49.19
67502;SHT30;54349;52.528;19.760;2022-07-15T12:25:38;22.71;48.41
67502;SHT30;54349;52.528;19.760;2022-07-15T12:28:07;22.88;48.49
67502;SHT30;54349;52.528;19.760;2022-07-15T12:30:37;23.03;48.18
67502;SHT30;54349;52.528;19.760;2022-07-15T12:35:49;22.87;49.17
67502;SHT30;54349;52.528;19.760;2022-07-15T12:38:38;22.69;49.25
67502;SHT30;54349;52.528;19.760;2022-07-15T12:41:07;22.79;49.23
67502;SHT30;54349;52.528;19.760;2022-07-15T12:43:54;22.97;48.96
67502;SHT30;54349;52.528;19.760;2022-07-15T12:57:47;23.01;49.18
67502;SHT30;54349;52.528;19.760;2022-07-15T13:00:17;23.16;48.93
67502;SHT30;54349;52.528;19.760;2022-07-15T13:05:38;22.95;49.07
67502;SHT30;54349;52.528;19.760;2022-07-15T13:08:13;22.79;49.09
67502;SHT30;54349;52.528;19.760;2022-07-15T13:10:45;22.88;49.10
67502;SHT30;54349;52.528;19.760;2022-07-15T13:13:17;23.04;48.93
67502;SHT30;54349;52.528;19.760;2022-07-15T13:15:49;23.18;48.83
67502;SHT30;54349;52.528;19.760;2022-07-15T13:18:18;23.15;49.28
67502;SHT30;54349;52.528;19.760;2022-07-15T13:20:48;22.92;49.25
67502;SHT30;54349;52.528;19.760;2022-07-15T13:23:16;22.79;49.34
67502;SHT30;54349;52.528;19.760;2022-07-15T13:25:44;22.91;48.87
67502;SHT30;54349;52.528;19.760;2022-07-15T13:28:13;23.06;48.75
67502;SHT30;54349;52.528;19.760;2022-07-15T13:30:42;23.18;48.75
67502;SHT30;54349;52.528;19.760;2022-07-15T13:33:10;23.08;49.03
67502;SHT30;54349;52.528;19.760;2022-07-15T13:35:39;22.84;49.21
67502;SHT30;54349;52.528;19.760;2022-07-15T13:38:08;22.83;49.12
67502;SHT30;54349;52.528;19.760;2022-07-15T13:40:36;22.97;48.93
67502;SHT30;54349;52.528;19.760;2022-07-15T13:43:04;23.12;48.91
67502;SHT30;54349;52.528;19.760;2022-07-15T13:45:33;23.21;49.02
67502;SHT30;54349;52.528;19.760;2022-07-15T13:48:01;23.02;49.19
67502;SHT30;54349;52.528;19.760;2022-07-15T13:50:29;22.81;49.36
67502;SHT30;54349;52.528;19.760;2022-07-15T13:53:16;22.89;48.97
67502;SHT30;54349;52.528;19.760;2022-07-15T13:55:44;23.05;48.57
67502;SHT30;54349;52.528;19.760;2022-07-15T13:58:12;23.18;48.58
67502;SHT30;54349;52.528;19.760;2022-07-15T14:00:40;23.15;48.92
67502;SHT30;54349;52.528;19.760;2022-07-15T14:03:09;22.92;48.97
67502;SHT30;54349;52.528;19.760;2022-07-15T14:05:37;22.81;49.05
67502;SHT30;54349;52.528;19.760;2022-07-15T14:08:06;22.93;48.71
67502;SHT30;54349;52.528;19.760;2022-07-15T14:10:35;23.07;48.58
67502;SHT30;54349;52.528;19.760;2022-07-15T14:13:03;23.19;48.38
67502;SHT30;54349;52.528;19.760;2022-07-15T14:15:31;23.10;48.97
67502;SHT30;54349;52.528;19.760;2022-07-15T14:18:05;22.86;49.07
67502;SHT30;54349;52.528;19.760;2022-07-15T14:20:34;22.83;48.34
67502;SHT30;54349;52.528;19.760;2022-07-15T14:23:03;22.97;48.22
67502;SHT30;54349;52.528;19.760;2022-07-15T14:25:31;23.11;48.32
67502;SHT30;54349;52.528;19.760;2022-07-15T14:27:59;23.18;48.64
67502;SHT30;54349;52.528;19.760;2022-07-15T14:30:27;22.97;48.85
67502;SHT30;54349;52.528;19.760;2022-07-15T14:32:56;22.79;49.07
67502;SHT30;54349;52.528;19.760;2022-07-15T14:35:26;22.91;48.96
67502;SHT30;54349;52.528;19.760;2022-07-15T14:37:58;23.07;48.73
67502;SHT30;54349;52.528;19.760;2022-07-15T14:40:26;23.20;48.58
67502;SHT30;54349;52.528;19.760;2022-07-15T14:42:54;23.14;48.99
67502;SHT30;54349;52.528;19.760;2022-07-15T14:45:22;22.91;49.02
67502;SHT30;54349;52.528;19.760;2022-07-15T14:47:51;22.80;49.25
67502;SHT30;54349;52.528;19.760;2022-07-15T14:50:19;22.91;49.06
67502;SHT30;54349;52.528;19.760;2022-07-15T14:52:49;23.04;48.92
67502;SHT30;54349;52.528;19.760;2022-07-15T14:55:18;23.14;48.30
67502;SHT30;54349;52.528;19.760;2022-07-15T14:57:46;22.96;48.97
67502;SHT30;54349;52.528;19.760;2022-07-15T15:00:14;22.86;49.11
67502;SHT30;54349;52.528;19.760;2022-07-15T15:02:43;22.96;48.95
67502;SHT30;54349;52.528;19.760;2022-07-15T15:05:12;23.08;48.54
67502;SHT30;54349;52.528;19.760;2022-07-15T15:07:41;23.19;48.49
67502;SHT30;54349;52.528;19.760;2022-07-15T15:10:10;23.06;48.83
67502;SHT30;54349;52.528;19.760;2022-07-15T15:12:39;22.88;49.13
67502;SHT30;54349;52.528;19.760;2022-07-15T15:15:08;22.92;49.07
67502;SHT30;54349;52.528;19.760;2022-07-15T15:17:37;23.06;48.69
67502;SHT30;54349;52.528;19.760;2022-07-15T15:20:09;23.19;48.31
67502;SHT30;54349;52.528;19.760;2022-07-15T15:22:39;23.22;48.77
67502;SHT30;54349;52.528;19.760;2022-07-15T15:25:08;23.00;49.01
67502;SHT30;54349;52.528;19.760;2022-07-15T15:27:37;22.91;48.87
67502;SHT30;54349;52.528;19.760;2022-07-15T15:30:07;23.01;48.39
67502;SHT30;54349;52.528;19.760;2022-07-15T15:32:36;23.16;48.31
67502;SHT30;54349;52.528;19.760;2022-07-15T15:35:06;23.26;48.57
67502;SHT30;54349;52.528;19.760;2022-07-15T15:37:35;23.13;48.68
67502;SHT30;54349;52.528;19.760;2022-07-15T15:40:03;22.90;48.37
67502;SHT30;54349;52.528;19.760;2022-07-15T15:42:32;22.81;48.68
67502;SHT30;54349;52.528;19.760;2022-07-15T15:45:00;22.93;48.44
67502;SHT30;54349;52.528;19.760;2022-07-15T15:47:29;23.08;48.23
67502;SHT30;54349;52.528;19.760;2022-07-15T15:49:57;23.22;48.24
67502;SHT30;54349;52.528;19.760;2022-07-15T15:52:25;23.16;48.63
67502;SHT30;54349;52.528;19.760;2022-07-15T15:54:53;22.96;48.49
67502;SHT30;54349;52.528;19.760;2022-07-15T15:57:22;22.86;48.75
67502;SHT30;54349;52.528;19.760;2022-07-15T15:59:50;22.98;48.55
67502;SHT30;54349;52.528;19.760;2022-07-15T16:02:19;23.13;48.36
67502;SHT30;54349;52.528;19.760;2022-07-15T16:04:47;23.25;48.26
67502;SHT30;54349;52.528;19.760;2022-07-15T16:07:35;23.15;48.54
67502;SHT30;54349;52.528;19.760;2022-07-15T16:10:05;22.93;48.61
67502;SHT30;54349;52.528;19.760;2022-07-15T16:12:34;22.91;48.74
67502;SHT30;54349;52.528;19.760;2022-07-15T16:15:03;23.04;48.61
67502;SHT30;54349;52.528;19.760;2022-07-15T16:17:32;23.17;48.34
67502;SHT30;54349;52.528;19.760;2022-07-15T16:20:00;23.27;48.50
67502;SHT30;54349;52.528;19.760;2022-07-15T16:22:28;23.16;48.86
67502;SHT30;54349;52.528;19.760;2022-07-15T16:25:14;22.95;48.96
67502;SHT30;54349;52.528;19.760;2022-07-15T16:27:42;22.99;48.92
67502;SHT30;54349;52.528;19.760;2022-07-15T16:30:11;23.12;48.72
67502;SHT30;54349;52.528;19.760;2022-07-15T16:32:50;23.26;48.42
67502;SHT30;54349;52.528;19.760;2022-07-15T16:35:21;23.28;48.69
67502;SHT30;54349;52.528;19.760;2022-07-15T16:37:52;23.08;48.70
67502;SHT30;54349;52.528;19.760;2022-07-15T16:40:22;22.96;48.94
67502;SHT30;54349;52.528;19.760;2022-07-15T16:42:51;23.08;48.82
67502;SHT30;54349;52.528;19.760;2022-07-15T16:45:19;23.21;48.57
67502;SHT30;54349;52.528;19.760;2022-07-15T16:47:48;23.31;48.38
67502;SHT30;54349;52.528;19.760;2022-07-15T16:50:17;23.16;48.53
67502;SHT30;54349;52.528;19.760;2022-07-15T16:52:45;22.95;48.96